Mitiwanga, Ohio
Current Conditions -  °F | °C
As of 3:12 AM on Monday 26 Jan 2015 (Local Time) from KPCW Reporting Station
Unknown Precip Unknown Precip  
Wind Chill:   Ceiling: 3300
Heat Index: 19°   Visibility: 10mi
Dew Point: 12°   Wind: 15mph
Humidity: 74%   Direction: 60°ENE
Pressure: 29.89"   Gusts: NA
Location:  41.3748°N, 82.5554°W
Report Text: KPCW 260812Z AUTO 06013KT 10SM UP SCT019 BKN033 OVC040 M07/M11 A2989 RMK
Loading
Personal Weather Stations






























Interactive Weather Map New forecast layout! Learn more

10-Day Weather Forecast

Advertisements
Track Severe Weather on mobile